Time;durP1;ratioP1;P1;durP2;ratioP2;P2;SDS_P1;SDS_P2;PMS_P1;PMS_P2;Temp;Humidity;BMP_temperature;BMP_pressure;BME280_temperature;BME280_humidity;BME280_pressure;Samples;Min_cycle;Max_cycle;Signal;HPM_P1;HPM_P2
2023/08/09 00:00:03;;;;;;;1.50;0.68;;;21.70;70.80;;;;;;2341530;54;20935;-68
2023/08/09 00:02:33;;;;;;;2.28;0.80;;;21.70;70.80;;;;;;2588363;53;20929;-69
2023/08/09 00:04:59;;;;;;;1.85;0.80;;;21.70;70.90;;;;;;2588281;53;20945;-71
2023/08/09 00:07:25;;;;;;;1.52;0.70;;;21.70;70.90;;;;;;2568682;53;20950;-69
2023/08/09 00:09:52;;;;;;;2.92;0.90;;;21.70;70.90;;;;;;2566539;53;20958;-69
2023/08/09 00:12:18;;;;;;;2.58;0.93;;;21.70;70.90;;;;;;2565480;53;21391;-68
2023/08/09 00:14:44;;;;;;;2.15;0.77;;;21.70;70.90;;;;;;2344164;54;20984;-69
2023/08/09 00:17:12;;;;;;;5.35;0.90;;;21.70;70.90;;;;;;2588192;53;21004;-67
2023/08/09 00:19:38;;;;;;;2.47;0.90;;;21.70;70.90;;;;;;2587867;53;20967;-67
2023/08/09 00:22:04;;;;;;;2.20;0.77;;;21.70;70.80;;;;;;2587950;53;20973;-70
2023/08/09 00:24:30;;;;;;;1.73;0.70;;;21.70;70.80;;;;;;2341717;54;21569;-69
2023/08/09 00:26:58;;;;;;;1.60;0.68;;;21.70;70.80;;;;;;2589083;53;21288;-68
2023/08/09 00:29:24;;;;;;;1.55;0.70;;;21.60;70.70;;;;;;2342355;54;20985;-69
2023/08/09 00:31:56;;;;;;;1.98;0.80;;;21.60;70.70;;;;;;2588690;53;20941;-68
2023/08/09 00:34:22;;;;;;;3.05;0.80;;;21.60;70.50;;;;;;2588320;53;20921;-67
2023/08/09 00:36:48;;;;;;;1.52;0.62;;;21.60;70.80;;;;;;2588410;53;20937;-68
2023/08/09 00:39:15;;;;;;;1.62;0.70;;;21.60;70.80;;;;;;2586211;53;21644;-70
2023/08/09 00:41:41;;;;;;;2.30;0.90;;;21.60;70.80;;;;;;2588910;53;21004;-68
2023/08/09 00:44:08;;;;;;;3.03;0.70;;;21.60;70.80;;;;;;2343081;54;20989;-68
2023/08/09 00:46:34;;;;;;;2.42;0.80;;;21.60;70.80;;;;;;2588030;53;21339;-69
2023/08/09 00:49:01;;;;;;;1.80;0.77;;;21.60;70.80;;;;;;2560720;53;21566;-69
2023/08/09 00:51:27;;;;;;;2.03;0.80;;;21.60;70.80;;;;;;2583246;53;21013;-67
2023/08/09 00:53:53;;;;;;;1.62;0.65;;;21.60;70.80;;;;;;2588358;53;20941;-71
2023/08/09 00:56:20;;;;;;;2.62;0.80;;;21.60;70.80;;;;;;2586356;53;21458;-67
2023/08/09 00:58:47;;;;;;;2.00;0.80;;;21.60;70.80;;;;;;2587571;53;20944;-71
2023/08/09 01:01:13;;;;;;;1.65;0.70;;;21.60;70.80;;;;;;2588168;53;20957;-68
2023/08/09 01:03:40;;;;;;;1.50;0.70;;;21.70;70.90;;;;;;2574090;53;21851;-69
2023/08/09 01:07:41;;;;;;;1.83;0.80;;;21.60;70.90;;;;;;2570666;53;20979;-69
2023/08/09 01:10:17;;;;;;;1.92;0.93;;;21.60;69.40;;;;;;2587790;53;20886;-70
2023/08/09 01:12:54;;;;;;;2.60;0.77;;;21.60;70.80;;;;;;2588337;53;20969;-68
2023/08/09 01:15:24;;;;;;;2.35;0.90;;;21.60;70.70;;;;;;2324842;54;21026;-71
2023/08/09 01:17:51;;;;;;;2.42;0.77;;;21.60;70.80;;;;;;2564849;53;20937;-70
2023/08/09 01:20:18;;;;;;;1.95;0.75;;;21.60;71.10;;;;;;2572158;53;21004;-69
2023/08/09 01:23:06;;;;;;;1.62;0.75;;;21.60;71.20;;;;;;2555269;53;21430;-67
2023/08/09 01:25:32;;;;;;;2.05;0.80;;;21.60;70.10;;;;;;2588130;53;20960;-67
2023/08/09 01:27:59;;;;;;;2.47;1.10;;;21.60;71.20;;;;;;2567442;53;21815;-67
2023/08/09 01:30:25;;;;;;;2.10;0.90;;;21.60;71.20;;;;;;2307678;54;21509;-69
2023/08/09 01:32:51;;;;;;;2.72;1.00;;;21.60;71.30;;;;;;2587900;53;21070;-68
2023/08/09 01:35:19;;;;;;;2.55;0.93;;;21.60;71.20;;;;;;2341718;54;20917;-69
2023/08/09 01:37:59;;;;;;;2.47;1.10;;;21.60;71.30;;;;;;2342317;54;20981;-70
2023/08/09 01:40:25;;;;;;;3.00;1.02;;;21.60;70.60;;;;;;2588174;53;20925;-69
2023/08/09 01:42:51;;;;;;;1.80;0.80;;;21.60;71.40;;;;;;2341890;54;20968;-69
2023/08/09 01:45:19;;;;;;;1.75;0.90;;;21.60;71.40;;;;;;2341896;54;20913;-68
2023/08/09 01:47:46;;;;;;;1.73;0.70;;;21.60;71.50;;;;;;2538361;53;21027;-68
2023/08/09 01:50:18;;;;;;;1.80;0.70;;;21.60;71.50;;;;;;2314242;55;20939;-69
2023/08/09 01:52:44;;;;;;;1.55;0.68;;;21.60;71.20;;;;;;2554043;53;21044;-69
2023/08/09 01:55:14;;;;;;;1.75;0.70;;;21.60;71.40;;;;;;2341606;54;20917;-71
2023/08/09 01:57:41;;;;;;;2.08;0.95;;;21.60;71.30;;;;;;2588222;53;20913;-68
2023/08/09 02:00:09;;;;;;;1.10;0.60;;;21.60;71.40;;;;;;2588955;53;21033;-69
2023/08/09 02:02:37;;;;;;;1.90;0.73;;;21.60;71.40;;;;;;2342087;54;20929;-70
2023/08/09 02:05:03;;;;;;;2.12;0.60;;;21.60;71.40;;;;;;2588241;53;20952;-68
2023/08/09 02:07:29;;;;;;;1.60;0.70;;;21.60;71.50;;;;;;2588030;53;20941;-68
2023/08/09 02:09:56;;;;;;;1.15;0.60;;;21.60;71.40;;;;;;2588257;53;21012;-71
2023/08/09 02:12:22;;;;;;;2.25;0.80;;;21.60;71.40;;;;;;2588286;53;20976;-71
2023/08/09 02:14:48;;;;;;;1.80;0.70;;;21.60;71.40;;;;;;2588323;53;21017;-69
2023/08/09 02:17:16;;;;;;;1.98;0.75;;;21.50;71.30;;;;;;2341858;54;20933;-69
2023/08/09 02:19:44;;;;;;;2.30;0.77;;;21.50;71.40;;;;;;2342970;54;20941;-68
2023/08/09 02:22:11;;;;;;;1.60;0.75;;;21.50;71.40;;;;;;2342084;54;21085;-68
2023/08/09 02:24:38;;;;;;;1.60;0.70;;;21.50;71.50;;;;;;2587815;53;20933;-68
2023/08/09 02:27:09;;;;;;;2.37;0.80;;;21.50;71.60;;;;;;2342977;54;20964;-69
2023/08/09 02:29:36;;;;;;;2.65;0.90;;;21.50;72.20;;;;;;2559487;53;20937;-69
2023/08/09 02:32:03;;;;;;;1.83;0.85;;;21.50;71.50;;;;;;2342245;54;20996;-70
2023/08/09 02:34:30;;;;;;;2.47;0.88;;;21.50;71.60;;;;;;2342002;54;20973;-66
2023/08/09 02:37:00;;;;;;;1.95;0.90;;;21.50;71.60;;;;;;2342793;54;21383;-68
2023/08/09 02:39:27;;;;;;;1.58;0.70;;;21.50;71.30;;;;;;2555392;53;20918;-69
2023/08/09 02:41:53;;;;;;;2.37;0.98;;;21.50;71.60;;;;;;2342218;54;20953;-68
2023/08/09 02:44:19;;;;;;;2.72;0.98;;;21.50;71.60;;;;;;2588882;53;21100;-67
2023/08/09 02:46:46;;;;;;;3.00;1.00;;;21.40;71.40;;;;;;2587338;53;20965;-69
2023/08/09 02:49:12;;;;;;;2.25;0.82;;;21.40;71.50;;;;;;2588782;53;21052;-67
2023/08/09 02:51:39;;;;;;;3.40;0.98;;;21.40;71.50;;;;;;2587563;53;20964;-68
2023/08/09 02:54:05;;;;;;;3.62;1.23;;;21.40;71.50;;;;;;2588712;53;20992;-71
2023/08/09 02:56:32;;;;;;;2.08;0.88;;;21.40;71.60;;;;;;2586759;53;20921;-69
2023/08/09 02:58:59;;;;;;;1.77;0.75;;;21.40;71.50;;;;;;2588051;53;21041;-69
2023/08/09 03:01:25;;;;;;;1.35;0.70;;;21.40;71.50;;;;;;2572115;53;20978;-68
2023/08/09 03:03:54;;;;;;;1.92;0.85;;;21.30;71.40;;;;;;2556916;53;20969;-72
2023/08/09 03:06:22;;;;;;;1.60;0.73;;;21.30;71.20;;;;;;2542832;53;20985;-68
2023/08/09 03:08:49;;;;;;;2.00;0.90;;;21.30;71.50;;;;;;2342007;54;20930;-68
2023/08/09 03:11:16;;;;;;;1.90;0.80;;;21.30;71.50;;;;;;2342512;54;20945;-71
2023/08/09 03:13:43;;;;;;;1.10;0.50;;;21.40;71.60;;;;;;2588250;53;21421;-68
2023/08/09 03:16:10;;;;;;;3.15;0.88;;;21.30;71.50;;;;;;2341397;54;20965;-69
2023/08/09 03:18:36;;;;;;;1.85;0.80;;;21.30;71.50;;;;;;2588279;53;21048;-69
2023/08/09 03:21:03;;;;;;;2.60;0.93;;;21.20;71.50;;;;;;2588337;53;20981;-68
2023/08/09 03:23:32;;;;;;;2.83;1.00;;;21.20;72.20;;;;;;2344888;54;20921;-70
2023/08/09 03:25:59;;;;;;;1.83;0.90;;;21.20;71.20;;;;;;2529887;53;21464;-67
2023/08/09 03:28:25;;;;;;;2.12;0.68;;;21.20;71.50;;;;;;2342568;54;21798;-69
2023/08/09 03:30:53;;;;;;;1.75;0.77;;;21.20;71.60;;;;;;2549371;54;21082;-69
2023/08/09 03:33:22;;;;;;;1.85;0.73;;;21.20;71.60;;;;;;2305559;54;20919;-68
2023/08/09 03:35:48;;;;;;;1.75;0.60;;;21.20;71.40;;;;;;2548520;54;21905;-68
2023/08/09 03:38:15;;;;;;;1.87;0.70;;;21.20;71.60;;;;;;2549150;54;21002;-69
2023/08/09 03:40:41;;;;;;;2.15;0.80;;;21.20;71.60;;;;;;2548129;54;20927;-68
2023/08/09 03:43:08;;;;;;;1.92;0.68;;;21.10;71.50;;;;;;2309657;54;20962;-69
2023/08/09 03:45:35;;;;;;;2.47;0.90;;;21.10;71.50;;;;;;2544325;54;22041;-69
2023/08/09 03:48:01;;;;;;;2.15;0.80;;;21.10;71.50;;;;;;2315272;54;20951;-69
2023/08/09 03:50:28;;;;;;;2.33;0.95;;;21.10;72.20;;;;;;2539237;54;21674;-67
2023/08/09 03:52:54;;;;;;;1.98;0.88;;;21.10;71.50;;;;;;2548735;53;20959;-67
2023/08/09 03:55:21;;;;;;;3.10;0.98;;;21.10;71.50;;;;;;2549428;54;21767;-69
2023/08/09 03:57:47;;;;;;;2.10;0.88;;;21.10;71.50;;;;;;2548493;54;21015;-69
2023/08/09 04:00:17;;;;;;;2.00;0.80;;;21.10;71.50;;;;;;2538638;53;20963;-69
2023/08/09 04:02:45;;;;;;;2.00;0.75;;;21.10;71.50;;;;;;2548456;54;21761;-69
2023/08/09 04:05:13;;;;;;;2.45;0.90;;;21.10;71.50;;;;;;2559660;53;20956;-68
2023/08/09 04:07:42;;;;;;;4.50;0.90;;;21.10;71.40;;;;;;2588328;53;20960;-68
2023/08/09 04:10:09;;;;;;;2.75;0.88;;;21.10;71.50;;;;;;2342264;54;20936;-68
2023/08/09 04:12:35;;;;;;;1.73;0.68;;;21.10;71.50;;;;;;2588586;53;20977;-70
2023/08/09 04:15:04;;;;;;;2.08;0.80;;;21.10;71.50;;;;;;2342249;54;21040;-69
2023/08/09 04:17:32;;;;;;;2.03;0.90;;;21.10;71.50;;;;;;2342168;54;20913;-69
2023/08/09 04:19:58;;;;;;;2.22;0.85;;;21.10;71.50;;;;;;2341745;54;20948;-68
2023/08/09 04:22:25;;;;;;;2.17;0.75;;;21.10;71.50;;;;;;2305718;54;21968;-70
2023/08/09 04:24:54;;;;;;;1.95;0.77;;;21.10;71.50;;;;;;2335452;54;20992;-68
2023/08/09 04:27:22;;;;;;;1.62;0.70;;;21.10;71.20;;;;;;2588900;53;21483;-68
2023/08/09 04:29:48;;;;;;;2.10;0.80;;;21.10;71.50;;;;;;2588309;53;20921;-72
2023/08/09 04:32:14;;;;;;;1.85;0.80;;;21.10;71.40;;;;;;2341304;54;21910;-69
2023/08/09 04:34:41;;;;;;;2.15;0.80;;;21.10;71.40;;;;;;2588104;53;20943;-69
2023/08/09 04:37:10;;;;;;;2.10;0.70;;;21.10;71.40;;;;;;2562989;53;20998;-68
2023/08/09 04:39:36;;;;;;;1.80;0.77;;;21.10;71.40;;;;;;2557176;53;20958;-69
2023/08/09 04:42:03;;;;;;;2.33;0.88;;;21.10;71.40;;;;;;2580705;53;21082;-69
2023/08/09 04:44:30;;;;;;;2.75;0.88;;;21.10;71.40;;;;;;2549359;54;20991;-71
2023/08/09 04:46:58;;;;;;;2.47;0.98;;;21.10;71.40;;;;;;2309577;54;21303;-67
2023/08/09 04:49:25;;;;;;;2.70;1.10;;;21.10;71.30;;;;;;2540376;54;23001;-68
2023/08/09 04:51:52;;;;;;;2.20;0.88;;;21.10;71.30;;;;;;2548087;54;21547;-67
2023/08/09 04:54:19;;;;;;;3.50;0.95;;;21.10;71.30;;;;;;2310595;54;20999;-69
2023/08/09 04:56:45;;;;;;;2.17;0.70;;;21.10;71.30;;;;;;2548717;54;21410;-70
2023/08/09 04:59:12;;;;;;;4.53;0.88;;;21.10;71.30;;;;;;2549578;54;20991;-69
2023/08/09 05:01:40;;;;;;;1.77;0.80;;;21.10;71.30;;;;;;2548951;54;20979;-68
2023/08/09 05:04:08;;;;;;;2.05;0.80;;;21.10;71.30;;;;;;2549150;54;21090;-68
2023/08/09 05:06:35;;;;;;;2.10;0.80;;;21.20;71.30;;;;;;2549654;54;20987;-68
2023/08/09 05:09:03;;;;;;;2.87;0.80;;;21.20;71.50;;;;;;2546856;54;21444;-69
2023/08/09 05:11:29;;;;;;;1.90;0.73;;;21.20;71.40;;;;;;2536620;53;21004;-70
2023/08/09 05:13:55;;;;;;;2.58;0.93;;;21.20;71.50;;;;;;2310091;54;21000;-71
2023/08/09 05:16:24;;;;;;;1.67;0.80;;;21.20;71.50;;;;;;2549905;53;20943;-69
2023/08/09 05:18:51;;;;;;;1.70;0.70;;;21.20;71.40;;;;;;2331898;54;20932;-67
2023/08/09 05:21:17;;;;;;;1.87;0.80;;;21.20;71.50;;;;;;2587871;53;21036;-72
2023/08/09 05:23:48;;;;;;;2.28;0.90;;;21.30;71.60;;;;;;2342146;54;21009;-68
2023/08/09 05:26:15;;;;;;;2.58;0.62;;;21.30;71.50;;;;;;2587765;53;20988;-69
2023/08/09 05:28:41;;;;;;;1.98;0.65;;;21.30;71.50;;;;;;2341783;54;20973;-68
2023/08/09 05:31:08;;;;;;;1.75;0.88;;;21.30;71.50;;;;;;2325991;54;21114;-68
2023/08/09 05:33:34;;;;;;;2.28;0.98;;;21.30;71.40;;;;;;2580002;53;20957;-67
2023/08/09 05:36:00;;;;;;;1.85;0.82;;;21.40;71.50;;;;;;2342529;54;20940;-70
2023/08/09 05:38:30;;;;;;;2.40;0.90;;;21.40;71.40;;;;;;2342638;54;21012;-69
2023/08/09 05:40:56;;;;;;;1.92;0.80;;;21.40;71.10;;;;;;2341348;54;21468;-69
2023/08/09 05:43:23;;;;;;;2.83;0.90;;;21.40;71.30;;;;;;2587914;53;20959;-69
2023/08/09 05:45:49;;;;;;;2.08;0.95;;;21.40;71.20;;;;;;2585927;53;20968;-70
2023/08/09 05:48:17;;;;;;;1.70;0.60;;;21.40;71.20;;;;;;2317561;54;21802;-68
2023/08/09 05:50:44;;;;;;;1.75;0.80;;;21.50;71.40;;;;;;2588561;53;21771;-68
2023/08/09 05:53:13;;;;;;;2.03;0.90;;;21.50;71.40;;;;;;2342652;54;21000;-68
2023/08/09 05:55:40;;;;;;;2.03;0.82;;;21.50;71.00;;;;;;2318989;55;20988;-71
2023/08/09 05:58:06;;;;;;;1.87;0.90;;;21.50;71.30;;;;;;2588518;53;21020;-67
2023/08/09 06:00:33;;;;;;;2.45;0.90;;;21.50;71.20;;;;;;2587909;53;21017;-69
2023/08/09 06:03:00;;;;;;;3.15;1.10;;;21.50;71.20;;;;;;2557133;53;21568;-68
2023/08/09 06:05:27;;;;;;;2.45;1.10;;;21.50;71.10;;;;;;2559338;53;20977;-69
2023/08/09 06:07:55;;;;;;;3.12;0.90;;;21.50;71.00;;;;;;2341670;54;21449;-68
2023/08/09 06:10:22;;;;;;;2.92;0.90;;;21.60;71.10;;;;;;2588121;53;20944;-68
2023/08/09 06:12:49;;;;;;;2.10;0.90;;;21.60;71.10;;;;;;2342036;54;20941;-68
2023/08/09 06:15:16;;;;;;;2.17;0.80;;;21.60;71.10;;;;;;2588376;53;20948;-69
2023/08/09 06:17:42;;;;;;;2.17;0.70;;;21.60;71.10;;;;;;2588533;53;20913;-69
2023/08/09 06:20:13;;;;;;;2.22;1.27;;;21.60;71.20;;;;;;2334380;54;22036;-69
2023/08/09 06:22:42;;;;;;;2.05;0.95;;;21.60;71.00;;;;;;2572265;53;21016;-70
2023/08/09 06:25:09;;;;;;;2.00;0.88;;;21.60;70.90;;;;;;2588492;53;21767;-69
2023/08/09 06:27:38;;;;;;;2.87;1.12;;;21.60;70.90;;;;;;2342050;54;20981;-68
2023/08/09 06:30:06;;;;;;;2.30;0.90;;;21.60;70.50;;;;;;2588659;53;20900;-68
2023/08/09 06:32:33;;;;;;;2.28;1.08;;;21.60;70.80;;;;;;2588585;53;21005;-69
2023/08/09 06:35:04;;;;;;;2.95;1.05;;;21.60;70.90;;;;;;2341377;54;21570;-69
2023/08/09 06:37:30;;;;;;;2.47;0.93;;;21.70;71.00;;;;;;2342734;54;21001;-68
2023/08/09 06:39:57;;;;;;;3.17;1.05;;;21.70;71.00;;;;;;2318887;54;21025;-68
2023/08/09 06:42:23;;;;;;;2.17;0.98;;;21.70;71.00;;;;;;2588995;53;20945;-69
2023/08/09 06:44:51;;;;;;;1.83;0.70;;;21.70;71.00;;;;;;2588775;53;20993;-68
2023/08/09 06:47:18;;;;;;;3.28;1.17;;;21.70;70.90;;;;;;2588777;53;20953;-67
2023/08/09 06:49:44;;;;;;;2.83;1.08;;;21.70;70.90;;;;;;2342496;54;21795;-66
2023/08/09 06:52:12;;;;;;;3.10;1.10;;;21.70;70.90;;;;;;2342810;54;21525;-68
2023/08/09 06:54:39;;;;;;;2.20;0.85;;;21.70;70.70;;;;;;2588840;53;21017;-69
2023/08/09 06:57:05;;;;;;;2.50;0.93;;;21.80;70.90;;;;;;2588618;53;21018;-67
2023/08/09 06:59:33;;;;;;;3.83;0.90;;;21.80;71.00;;;;;;2588403;53;21064;-68
2023/08/09 07:02:00;;;;;;;2.22;0.90;;;21.80;71.00;;;;;;2588444;53;21437;-71
2023/08/09 07:04:26;;;;;;;2.50;0.82;;;21.80;70.90;;;;;;2342347;54;20958;-68
2023/08/09 07:06:53;;;;;;;2.10;0.88;;;21.80;71.00;;;;;;2588458;53;20980;-70
2023/08/09 07:09:20;;;;;;;2.20;0.90;;;21.80;71.00;;;;;;2588669;53;20961;-67
2023/08/09 07:11:52;;;;;;;5.20;0.95;;;21.80;71.00;;;;;;2588038;53;20968;-68
2023/08/09 07:14:18;;;;;;;3.40;1.02;;;21.80;70.80;;;;;;2342207;54;21004;-69
2023/08/09 07:16:44;;;;;;;3.12;1.00;;;21.80;71.00;;;;;;2588153;53;21826;-70
2023/08/09 07:19:13;;;;;;;1.83;0.77;;;21.90;71.00;;;;;;2589118;53;20964;-68
2023/08/09 07:21:41;;;;;;;2.55;0.90;;;21.90;71.10;;;;;;2549134;54;21033;-68
2023/08/09 07:24:08;;;;;;;2.33;0.93;;;21.90;71.00;;;;;;2549220;54;21410;-72
2023/08/09 07:26:34;;;;;;;2.20;0.93;;;21.90;71.00;;;;;;2549385;54;21028;-69
2023/08/09 07:29:04;;;;;;;1.90;0.90;;;22.00;71.00;;;;;;2549080;54;20959;-69
2023/08/09 07:31:30;;;;;;;2.10;0.95;;;22.00;71.00;;;;;;2549761;54;20919;-68
2023/08/09 07:33:57;;;;;;;3.35;0.88;;;22.00;71.00;;;;;;2309685;54;21010;-68
2023/08/09 07:36:24;;;;;;;2.42;1.10;;;22.00;70.90;;;;;;2546333;54;21042;-67
2023/08/09 07:38:55;;;;;;;2.58;1.02;;;22.10;71.00;;;;;;2542157;54;20919;-69
2023/08/09 07:41:21;;;;;;;2.95;0.90;;;22.10;70.60;;;;;;2310356;54;20931;-68
2023/08/09 07:43:48;;;;;;;2.78;0.80;;;22.10;70.90;;;;;;2546456;54;20995;-67
2023/08/09 07:46:15;;;;;;;2.12;0.98;;;22.20;71.10;;;;;;2541460;54;20951;-70
2023/08/09 07:48:41;;;;;;;2.37;1.08;;;22.20;71.20;;;;;;2548682;54;20919;-69
2023/08/09 07:51:11;;;;;;;7.07;1.33;;;22.20;71.20;;;;;;2547995;54;20980;-68
2023/08/09 07:53:44;;;;;;;3.12;1.00;;;22.30;71.30;;;;;;2309881;54;20967;-68
2023/08/09 07:56:12;;;;;;;2.95;1.20;;;22.30;70.90;;;;;;2549397;54;20984;-69
2023/08/09 07:58:38;;;;;;;2.37;1.17;;;22.40;71.20;;;;;;2310499;54;20975;-69
2023/08/09 08:01:05;;;;;;;6.97;1.27;;;22.40;71.20;;;;;;2310342;54;20927;-67
2023/08/09 08:03:33;;;;;;;1.92;0.82;;;22.40;71.20;;;;;;2549173;54;20935;-69
2023/08/09 08:05:59;;;;;;;3.00;1.00;;;22.50;71.40;;;;;;2548788;54;20948;-71
2023/08/09 08:08:25;;;;;;;2.45;1.00;;;22.50;71.20;;;;;;2549957;54;21023;-69
2023/08/09 08:10:57;;;;;;;2.33;1.08;;;22.60;71.30;;;;;;2309971;54;20923;-68
2023/08/09 08:13:23;;;;;;;4.55;1.05;;;22.70;71.20;;;;;;2306427;54;20991;-70
2023/08/09 08:15:50;;;;;;;2.58;1.10;;;22.70;71.50;;;;;;2549447;54;20935;-68
2023/08/09 08:18:17;;;;;;;2.25;0.90;;;22.70;71.50;;;;;;2549513;54;21004;-69
2023/08/09 08:20:43;;;;;;;2.35;1.05;;;22.80;71.40;;;;;;2310431;55;21029;-70
2023/08/09 08:23:10;;;;;;;2.20;0.90;;;22.90;71.30;;;;;;2543358;53;21039;-71
2023/08/09 08:25:36;;;;;;;2.58;1.10;;;22.90;71.30;;;;;;2549630;54;21385;-68
2023/08/09 08:28:03;;;;;;;2.30;1.00;;;22.90;71.30;;;;;;2548860;54;21023;-70
2023/08/09 08:30:29;;;;;;;2.17;1.00;;;23.00;71.30;;;;;;2546444;54;20948;-69
2023/08/09 08:32:56;;;;;;;2.58;0.80;;;23.00;71.20;;;;;;2281877;55;21562;-69
2023/08/09 08:35:24;;;;;;;2.70;1.00;;;23.10;71.20;;;;;;2549105;53;20976;-69
2023/08/09 08:37:53;;;;;;;2.35;0.85;;;23.10;71.10;;;;;;2548874;53;21011;-69
2023/08/09 08:40:21;;;;;;;2.10;0.98;;;23.20;71.10;;;;;;2315028;55;21300;-69
2023/08/09 08:42:47;;;;;;;2.10;0.85;;;23.20;71.10;;;;;;2310266;56;20991;-69
2023/08/09 08:45:15;;;;;;;2.55;1.00;;;23.20;71.00;;;;;;2587909;53;20953;-71
2023/08/09 08:47:44;;;;;;;2.80;0.90;;;23.30;70.90;;;;;;2342219;54;20988;-70
2023/08/09 08:50:13;;;;;;;2.40;0.98;;;23.30;70.70;;;;;;2587947;53;21046;-72
2023/08/09 08:52:43;;;;;;;1.73;0.80;;;23.30;70.60;;;;;;2588660;53;20913;-68
2023/08/09 08:55:10;;;;;;;2.78;1.17;;;23.30;70.50;;;;;;2588198;53;20957;-67
2023/08/09 08:57:40;;;;;;;2.60;0.90;;;23.30;70.60;;;;;;2587858;53;20937;-69
2023/08/09 09:00:15;;;;;;;2.53;1.07;;;23.40;70.80;;;;;;2548869;53;2142970;-71
2023/08/09 09:02:46;;;;;;;3.22;1.33;;;23.40;70.60;;;;;;2342393;54;21000;-70
2023/08/09 09:05:13;;;;;;;3.33;1.40;;;23.40;70.60;;;;;;2587958;53;21201;-71
2023/08/09 09:07:40;;;;;;;3.05;1.40;;;23.50;70.70;;;;;;2342107;54;20961;-69
2023/08/09 09:10:10;;;;;;;2.80;1.20;;;23.50;70.80;;;;;;2587709;53;20988;-69
2023/08/09 09:12:37;;;;;;;3.08;1.60;;;23.50;70.70;;;;;;2588081;53;21336;-69
2023/08/09 09:15:04;;;;;;;3.47;1.10;;;23.50;70.70;;;;;;2588070;53;20928;-69
2023/08/09 09:17:38;;;;;;;2.70;1.20;;;23.50;70.70;;;;;;2342475;54;20972;-66
2023/08/09 09:20:18;;;;;;;3.03;1.27;;;23.60;70.30;;;;;;2588225;53;20937;-71
2023/08/09 09:22:44;;;;;;;2.90;1.20;;;23.60;70.90;;;;;;2342406;54;20989;-69
2023/08/09 09:25:12;;;;;;;2.20;1.00;;;23.60;70.90;;;;;;2342815;54;21426;-69
2023/08/09 09:27:42;;;;;;;2.47;1.05;;;23.70;70.80;;;;;;2588420;53;20969;-69
2023/08/09 09:30:15;;;;;;;3.08;1.10;;;23.70;70.70;;;;;;2588243;53;20941;-71
2023/08/09 09:32:56;;;;;;;1.92;1.00;;;23.70;70.70;;;;;;2588875;53;21051;-69
2023/08/09 09:35:28;;;;;;;2.42;0.90;;;23.80;69.50;;;;;;2342347;54;21477;-68
2023/08/09 09:37:55;;;;;;;2.87;1.00;;;23.80;70.80;;;;;;2588649;53;21358;-73
2023/08/09 09:40:26;;;;;;;2.53;0.95;;;23.80;70.80;;;;;;2588254;53;20913;-71
2023/08/09 09:42:53;;;;;;;2.25;0.88;;;23.90;70.70;;;;;;2588248;53;21398;-67
2023/08/09 09:45:22;;;;;;;2.08;0.95;;;23.90;70.50;;;;;;2587229;53;20961;-69
2023/08/09 09:47:49;;;;;;;2.35;0.90;;;23.90;70.30;;;;;;2580599;53;20955;-68
2023/08/09 09:50:16;;;;;;;2.53;1.10;;;23.90;70.30;;;;;;2556409;53;21042;-72
2023/08/09 09:52:42;;;;;;;5.07;1.65;;;23.90;70.10;;;;;;2320010;54;20976;-70
2023/08/09 09:55:10;;;;;;;2.97;1.25;;;24.00;70.10;;;;;;2342819;54;22309;-69
2023/08/09 09:57:36;;;;;;;2.85;1.20;;;24.00;70.10;;;;;;2588068;53;22158;-72
2023/08/09 10:00:08;;;;;;;2.75;0.98;;;24.00;70.20;;;;;;2587468;53;22023;-69
2023/08/09 10:03:39;;;;;;;2.05;0.80;;;24.00;69.80;;;;;;2342353;54;21012;-71
2023/08/09 10:06:10;;;;;;;1.90;0.80;;;24.10;68.70;;;;;;2587253;53;20925;-70
2023/08/09 10:08:41;;;;;;;1.80;0.82;;;24.10;70.40;;;;;;2587968;53;20994;-69
2023/08/09 10:11:08;;;;;;;2.10;0.90;;;24.10;70.50;;;;;;2588261;53;20925;-69
2023/08/09 10:13:35;;;;;;;1.92;0.80;;;24.10;70.60;;;;;;2577715;53;21525;-72
2023/08/09 10:16:05;;;;;;;2.58;0.98;;;24.20;70.90;;;;;;2324898;54;20928;-68
2023/08/09 10:18:43;;;;;;;2.60;0.90;;;24.20;71.00;;;;;;2588692;53;20937;-69
2023/08/09 10:21:10;;;;;;;6.35;1.25;;;24.30;70.50;;;;;;2588070;53;20996;-69
2023/08/09 10:23:38;;;;;;;2.72;1.20;;;24.40;70.80;;;;;;2342309;54;21032;-70
2023/08/09 10:26:06;;;;;;;2.12;0.90;;;24.40;70.50;;;;;;2560096;53;20979;-69
2023/08/09 10:28:47;;;;;;;2.60;1.00;;;24.50;70.70;;;;;;2338318;54;21020;-69
2023/08/09 10:31:54;;;;;;;2.28;0.90;;;24.60;69.70;;;;;;2588549;53;20969;-69
2023/08/09 10:34:22;;;;;;;2.58;1.00;;;24.70;69.10;;;;;;2549153;54;20956;-70
2023/08/09 10:36:50;;;;;;;3.80;1.20;;;24.70;70.60;;;;;;2310885;55;21026;-67
2023/08/09 10:39:18;;;;;;;3.58;1.17;;;24.80;70.60;;;;;;2548911;54;20919;-69
2023/08/09 10:41:59;;;;;;;2.45;0.98;;;24.80;70.50;;;;;;2310230;55;21417;-69
2023/08/09 10:44:42;;;;;;;2.67;0.90;;;24.90;69.40;;;;;;2549602;54;20967;-69
2023/08/09 10:47:21;;;;;;;2.12;0.93;;;24.90;69.80;;;;;;2301573;53;20946;-70
2023/08/09 10:50:07;;;;;;;2.10;1.00;;;25.00;70.10;;;;;;2310626;54;21014;-69
2023/08/09 10:52:39;;;;;;;2.97;1.00;;;25.00;68.70;;;;;;2310474;54;20997;-69
2023/08/09 10:55:25;;;;;;;;;;;25.10;70.20;;;;;;2553348;54;21002;-68
2023/08/09 10:57:53;;;;;;;2.60;0.80;;;25.20;69.20;;;;;;2514952;54;20627;-69
2023/08/09 11:00:22;;;;;;;2.67;0.90;;;25.30;71.00;;;;;;2554797;53;20936;-69
2023/08/09 11:02:55;;;;;;;2.10;0.98;;;25.30;70.70;;;;;;2321093;54;20930;-69
2023/08/09 11:05:23;;;;;;;1.80;0.93;;;25.40;70.10;;;;;;2342310;54;21048;-69
2023/08/09 11:07:51;;;;;;;3.40;1.10;;;25.40;70.50;;;;;;2342652;54;21786;-70
2023/08/09 11:10:33;;;;;;;2.37;0.80;;;25.50;70.40;;;;;;2588085;53;20969;-68
2023/08/09 11:13:08;;;;;;;2.10;0.90;;;25.50;69.00;;;;;;2318205;54;20978;-69
2023/08/09 11:15:41;;;;;;;2.60;1.10;;;25.60;70.20;;;;;;2588775;53;20905;-69
2023/08/09 11:18:10;;;;;;;2.10;0.90;;;25.60;70.30;;;;;;2589027;53;20952;-70
2023/08/09 11:20:36;;;;;;;2.85;1.00;;;25.70;70.30;;;;;;2341318;54;20929;-71
2023/08/09 11:23:04;;;;;;;2.42;1.20;;;25.70;70.00;;;;;;2341429;54;20933;-69
2023/08/09 11:25:31;;;;;;;2.70;1.10;;;25.80;70.00;;;;;;2341530;54;20921;-69
2023/08/09 11:27:58;;;;;;;4.00;0.93;;;25.80;69.60;;;;;;2572184;53;20954;-68
2023/08/09 11:30:25;;;;;;;3.00;1.10;;;25.90;69.40;;;;;;2329444;54;20973;-68
2023/08/09 11:33:02;;;;;;;2.40;1.02;;;25.90;69.30;;;;;;2343574;54;20949;-68
2023/08/09 11:35:44;;;;;;;1.98;0.98;;;25.90;67.50;;;;;;2311216;55;21894;-69
2023/08/09 11:38:13;;;;;;;2.25;0.90;;;25.90;68.90;;;;;;2311093;54;21076;-70
2023/08/09 11:40:44;;;;;;;2.72;1.10;;;26.00;69.10;;;;;;2542647;53;21450;-68
2023/08/09 11:43:16;;;;;;;2.42;1.00;;;26.00;68.40;;;;;;2309334;55;21011;-72
2023/08/09 11:45:55;;;;;;;2.50;1.05;;;26.00;68.40;;;;;;2315309;55;21018;-69
2023/08/09 11:48:32;;;;;;;2.17;1.00;;;26.00;67.90;;;;;;2342284;54;20977;-68
2023/08/09 11:51:07;;;;;;;3.92;1.12;;;26.00;68.20;;;;;;2342247;54;21008;-68
2023/08/09 11:53:34;;;;;;;3.30;0.98;;;26.00;67.50;;;;;;2587859;53;21805;-69
2023/08/09 11:56:01;;;;;;;3.55;1.00;;;26.00;68.40;;;;;;2562560;53;21006;-68
2023/08/09 11:58:28;;;;;;;2.90;0.80;;;26.00;68.10;;;;;;2580883;53;20933;-69
2023/08/09 12:00:54;;;;;;;1.58;0.65;;;26.00;68.20;;;;;;2342028;54;21004;-68
2023/08/09 12:03:21;;;;;;;2.03;0.90;;;26.00;68.40;;;;;;2588478;53;21016;-69
2023/08/09 12:05:51;;;;;;;3.50;1.00;;;26.00;68.30;;;;;;2554949;53;20942;-68
2023/08/09 12:08:35;;;;;;;;;;;26.00;68.00;;;;;;2344582;54;20925;-71
2023/08/09 12:11:01;;;;;;;2.35;0.80;;;26.00;67.20;;;;;;2588420;53;20123;-68
2023/08/09 12:13:28;;;;;;;2.58;0.80;;;26.00;68.70;;;;;;2342446;54;20948;-68
2023/08/09 12:15:55;;;;;;;1.33;0.60;;;26.00;68.70;;;;;;2554873;53;21079;-68
2023/08/09 12:18:23;;;;;;;2.55;0.90;;;26.00;68.40;;;;;;2588820;53;20992;-70
2023/08/09 12:20:49;;;;;;;2.92;0.90;;;25.90;68.20;;;;;;2341107;54;21061;-69
2023/08/09 12:23:15;;;;;;;2.10;0.80;;;25.90;68.40;;;;;;2319834;54;21461;-69
2023/08/09 12:25:43;;;;;;;3.22;0.82;;;25.90;68.40;;;;;;2560631;53;20944;-70
2023/08/09 12:28:10;;;;;;;2.03;0.80;;;25.90;68.40;;;;;;2584090;53;21040;-69
2023/08/09 12:30:37;;;;;;;2.10;0.80;;;25.80;68.50;;;;;;2342156;54;20980;-70
2023/08/09 12:33:05;;;;;;;2.30;0.98;;;25.80;68.50;;;;;;2587954;53;21033;-71
2023/08/09 12:35:32;;;;;;;1.87;0.70;;;25.80;68.50;;;;;;2588110;53;20941;-68
2023/08/09 12:37:58;;;;;;;1.85;0.73;;;25.80;68.60;;;;;;2586686;53;21520;-68
2023/08/09 12:40:25;;;;;;;1.65;0.62;;;25.70;68.50;;;;;;2571993;53;20965;-70
2023/08/09 12:42:51;;;;;;;2.10;0.90;;;25.70;68.50;;;;;;2569372;53;21609;-67
2023/08/09 12:45:18;;;;;;;1.30;0.60;;;25.70;68.50;;;;;;2341457;54;21453;-72
2023/08/09 12:47:45;;;;;;;1.62;0.68;;;25.70;68.50;;;;;;2341576;54;21442;-69
2023/08/09 12:50:12;;;;;;;1.40;0.55;;;25.70;68.50;;;;;;2587485;53;21513;-73
2023/08/09 12:52:38;;;;;;;2.05;0.80;;;25.70;68.50;;;;;;2555224;53;21070;-70
2023/08/09 12:55:07;;;;;;;1.80;0.60;;;25.70;68.70;;;;;;2588317;53;21783;-70